createdAt,value
2019-05-10T00:01:49.109Z,12.40
2019-05-10T00:04:37.024Z,12.07
2019-05-10T00:07:24.670Z,13.03
2019-05-10T00:09:55.257Z,16.23
2019-05-10T00:12:32.503Z,11.57
2019-05-10T00:15:03.105Z,29.63
2019-05-10T00:17:32.675Z,15.27
2019-05-10T00:20:02.166Z,16.23
2019-05-10T00:22:32.058Z,16.17
2019-05-10T00:25:04.467Z,16.87
2019-05-10T00:27:32.992Z,12.10
2019-05-10T00:30:02.568Z,20.43
2019-05-10T00:32:32.357Z,13.00
2019-05-10T00:35:02.176Z,12.00
2019-05-10T00:37:31.716Z,15.27
2019-05-10T00:40:01.309Z,11.50
2019-05-10T00:42:31.309Z,15.63
2019-05-10T00:45:00.818Z,13.23
2019-05-10T00:47:30.400Z,17.10
2019-05-10T00:49:59.969Z,15.90
2019-05-10T00:52:29.468Z,13.23
2019-05-10T00:54:59.041Z,16.87
2019-05-10T00:57:28.540Z,17.53
2019-05-10T00:59:58.062Z,19.13
2019-05-10T01:02:27.593Z,18.57
2019-05-10T01:04:57.332Z,20.03
2019-05-10T01:07:26.881Z,20.47
2019-05-10T01:09:56.385Z,15.13
2019-05-10T01:12:25.950Z,10.37
2019-05-10T01:14:55.503Z,18.67
2019-05-10T01:17:25.132Z,11.37
2019-05-10T01:19:55.834Z,15.80
2019-05-10T01:22:25.565Z,11.40
2019-05-10T01:24:55.087Z,14.97
2019-05-10T01:27:24.809Z,15.30
2019-05-10T01:29:54.360Z,21.73
2019-05-10T01:32:23.909Z,16.07
2019-05-10T01:34:53.426Z,18.17
2019-05-10T01:37:23.069Z,13.00
2019-05-10T01:39:52.607Z,16.23
2019-05-10T01:42:22.132Z,15.10
2019-05-10T01:44:51.658Z,25.93
2019-05-10T01:47:21.409Z,10.63
2019-05-10T01:49:50.887Z,16.10
2019-05-10T01:52:20.486Z,15.73
2019-05-10T01:54:50.173Z,12.83
2019-05-10T01:57:19.706Z,16.53
2019-05-10T01:59:49.256Z,14.53
2019-05-10T02:02:18.863Z,12.70
2019-05-10T02:04:48.375Z,21.37
2019-05-10T02:07:18.021Z,12.73
2019-05-10T02:09:48.039Z,13.10
2019-05-10T02:12:17.679Z,15.27
2019-05-10T02:14:47.847Z,15.17
2019-05-10T02:17:17.373Z,20.10
2019-05-10T02:19:46.930Z,18.17
2019-05-10T02:22:16.937Z,12.53
2019-05-10T02:24:46.500Z,23.43
2019-05-10T02:27:16.114Z,16.90
2019-05-10T02:29:45.715Z,16.33
2019-05-10T02:32:16.205Z,14.33
2019-05-10T02:34:45.711Z,15.73
2019-05-10T02:37:15.251Z,25.30
2019-05-10T02:39:44.829Z,12.07
2019-05-10T02:42:14.643Z,12.77
2019-05-10T02:44:44.222Z,12.70
2019-05-10T02:47:17.004Z,16.00
2019-05-10T02:49:46.540Z,18.00
2019-05-10T02:52:16.079Z,18.10
2019-05-10T02:54:46.218Z,12.13
2019-05-10T02:57:16.352Z,18.93
2019-05-10T02:59:48.448Z,22.53
2019-05-10T03:02:19.031Z,18.50
2019-05-10T03:04:49.990Z,18.83
2019-05-10T03:07:22.965Z,23.10
2019-05-10T03:09:52.650Z,19.63
2019-05-10T03:12:26.655Z,14.73
2019-05-10T03:14:58.042Z,16.60
2019-05-10T03:17:28.311Z,18.97
2019-05-10T03:20:00.191Z,17.30
2019-05-10T03:22:32.908Z,23.67
2019-05-10T03:25:02.434Z,18.17
2019-05-10T03:27:32.208Z,12.33
2019-05-10T03:30:01.858Z,19.10
2019-05-10T03:32:31.531Z,14.73
2019-05-10T03:35:02.451Z,24.73
2019-05-10T03:37:33.031Z,16.47
2019-05-10T03:40:02.975Z,17.50
2019-05-10T03:42:32.617Z,15.77
2019-05-10T03:45:02.160Z,16.80
2019-05-10T03:47:31.765Z,20.77
2019-05-10T03:50:01.270Z,23.67
2019-05-10T03:52:30.832Z,19.33
2019-05-10T03:55:00.467Z,21.30
2019-05-10T03:57:30.067Z,24.40
2019-05-10T04:00:00.082Z,22.33
2019-05-10T04:02:29.687Z,22.13
2019-05-10T04:04:59.193Z,24.37
2019-05-10T04:07:28.772Z,24.70
2019-05-10T04:09:58.393Z,24.40
2019-05-10T04:12:28.649Z,27.70
2019-05-10T04:14:58.244Z,27.07
2019-05-10T04:17:28.933Z,27.40
2019-05-10T04:19:58.450Z,28.23
2019-05-10T04:22:29.104Z,23.87
2019-05-10T04:24:58.645Z,23.27
2019-05-10T04:27:32.799Z,30.70
2019-05-10T04:30:10.917Z,33.57
2019-05-10T04:32:43.622Z,30.60
2019-05-10T04:35:13.353Z,28.77
2019-05-10T04:37:42.861Z,30.37
2019-05-10T04:40:12.772Z,33.60
2019-05-10T04:42:44.355Z,31.83
2019-05-10T04:45:15.142Z,30.60
2019-05-10T04:47:44.818Z,36.13
2019-05-10T04:50:14.971Z,31.37
2019-05-10T04:52:44.469Z,29.27
2019-05-10T04:55:15.072Z,57.50
2019-05-10T04:57:50.787Z,26.90
2019-05-10T05:00:17.514Z,32.03
2019-05-10T05:02:47.174Z,34.57
2019-05-10T05:05:17.324Z,34.40
2019-05-10T05:07:46.885Z,33.00
2019-05-10T05:10:16.417Z,32.97
2019-05-10T05:12:47.012Z,35.90
2019-05-10T05:15:16.744Z,37.53
2019-05-10T05:17:46.273Z,34.97
2019-05-10T05:20:16.054Z,32.20
2019-05-10T05:22:45.693Z,30.67
2019-05-10T05:25:15.422Z,32.40
2019-05-10T05:27:45.194Z,43.00
2019-05-10T05:30:15.322Z,34.30
2019-05-10T05:32:45.848Z,34.47
2019-05-10T05:35:16.570Z,35.87
2019-05-10T05:37:46.098Z,38.77
2019-05-10T05:40:15.832Z,31.13
2019-05-10T05:42:45.342Z,27.10
2019-05-10T05:45:15.741Z,28.90
2019-05-10T05:47:45.396Z,25.07
2019-05-10T05:50:15.189Z,27.70
2019-05-10T05:52:44.704Z,28.23
2019-05-10T05:55:14.360Z,34.43
2019-05-10T05:57:43.879Z,22.23
2019-05-10T06:00:14.454Z,26.77
2019-05-10T06:02:46.748Z,18.73
2019-05-10T06:05:32.775Z,21.33
2019-05-10T06:07:52.131Z,17.50
2019-05-10T06:10:20.866Z,16.37
2019-05-10T06:12:52.898Z,16.03
2019-05-10T06:15:23.192Z,11.63
2019-05-10T06:17:57.025Z,9.70
2019-05-10T06:20:27.188Z,13.90
2019-05-10T06:23:06.369Z,15.20
2019-05-10T06:25:39.227Z,12.07
2019-05-10T06:28:02.292Z,14.33
2019-05-10T06:30:31.968Z,10.37
2019-05-10T06:33:12.049Z,11.13
2019-05-10T06:35:33.705Z,10.63
2019-05-10T06:38:03.326Z,14.03
2019-05-10T06:40:39.318Z,9.97
2019-05-10T06:43:07.045Z,10.10
2019-05-10T06:45:37.548Z,9.03
2019-05-10T06:48:07.125Z,7.83
2019-05-10T06:50:36.767Z,6.80
2019-05-10T06:53:10.762Z,7.50
2019-05-10T06:55:38.496Z,8.90
2019-05-10T06:58:08.196Z,9.97
2019-05-10T07:00:43.876Z,10.57
2019-05-10T07:03:09.122Z,11.40
2019-05-10T07:05:38.699Z,10.37
2019-05-10T07:08:20.103Z,10.53
2019-05-10T07:10:46.788Z,9.30
2019-05-10T07:13:16.380Z,7.13
2019-05-10T07:15:46.882Z,9.37
2019-05-10T07:18:22.545Z,6.83
2019-05-10T07:20:49.604Z,7.47
2019-05-10T07:23:25.021Z,7.43
2019-05-10T07:25:54.592Z,8.60
2019-05-10T07:28:24.161Z,10.90
2019-05-10T07:30:53.881Z,9.53
2019-05-10T07:33:23.451Z,10.20
2019-05-10T07:35:52.989Z,8.67
2019-05-10T07:38:23.794Z,6.10
2019-05-10T07:40:53.808Z,6.57
2019-05-10T07:43:26.637Z,10.23
2019-05-10T07:45:58.781Z,7.60
2019-05-10T07:48:25.775Z,5.80
2019-05-10T07:50:55.743Z,7.30
2019-05-10T07:53:25.357Z,9.93
2019-05-10T07:56:00.013Z,12.20
2019-05-10T07:58:26.535Z,9.37
2019-05-10T08:00:56.421Z,8.70
2019-05-10T08:03:26.055Z,6.33
2019-05-10T08:05:58.957Z,8.87
2019-05-10T08:08:29.463Z,6.67
2019-05-10T08:10:59.333Z,10.93
2019-05-10T08:13:28.945Z,14.83
2019-05-10T08:16:05.242Z,8.07
2019-05-10T08:18:31.938Z,10.27
2019-05-10T08:21:03.335Z,8.47
2019-05-10T08:23:32.712Z,7.17
2019-05-10T08:26:04.563Z,4.20
2019-05-10T08:28:37.853Z,6.30
2019-05-10T08:31:05.646Z,7.80
2019-05-10T08:33:35.176Z,9.17
2019-05-10T08:36:05.618Z,7.27
2019-05-10T08:38:39.851Z,6.90
2019-05-10T08:41:08.196Z,7.20
2019-05-10T08:43:40.115Z,6.70
2019-05-10T08:46:11.904Z,7.63
2019-05-10T08:48:46.775Z,7.10
2019-05-10T08:51:12.761Z,10.93
2019-05-10T08:53:42.522Z,7.87
2019-05-10T08:56:20.867Z,5.60
2019-05-10T08:58:45.919Z,6.90
2019-05-10T09:01:26.252Z,5.50
2019-05-10T09:03:47.197Z,4.40
2019-05-10T09:06:17.941Z,7.07
2019-05-10T09:08:51.922Z,6.80
2019-05-10T09:11:18.834Z,6.13
2019-05-10T09:13:48.476Z,6.33
2019-05-10T09:16:17.977Z,4.97
2019-05-10T09:18:51.233Z,7.60
2019-05-10T09:21:18.841Z,4.70
2019-05-10T09:23:52.815Z,7.80
2019-05-10T09:26:19.578Z,8.30
2019-05-10T09:28:55.522Z,9.03
2019-05-10T09:31:22.866Z,6.13
2019-05-10T09:33:54.333Z,6.77
2019-05-10T09:36:30.973Z,5.57
2019-05-10T09:38:55.536Z,4.93
2019-05-10T09:41:27.611Z,5.73
2019-05-10T09:43:56.876Z,8.73
2019-05-10T09:46:26.507Z,8.30
2019-05-10T09:49:06.137Z,5.67
2019-05-10T09:51:30.285Z,6.33
2019-05-10T09:54:00.330Z,7.23
2019-05-10T09:56:32.885Z,6.87
2019-05-10T09:59:01.310Z,10.40
2019-05-10T10:01:30.833Z,9.63
2019-05-10T10:04:02.277Z,5.70
2019-05-10T10:06:31.609Z,10.60
2019-05-10T10:09:02.153Z,9.23
2019-05-10T10:11:32.008Z,6.07
2019-05-10T10:14:02.307Z,5.63
2019-05-10T10:16:31.971Z,7.63
2019-05-10T10:19:01.487Z,8.33
2019-05-10T10:21:35.376Z,6.43
2019-05-10T10:24:14.502Z,8.93
2019-05-10T10:26:33.479Z,11.63
2019-05-10T10:29:03.012Z,5.30
2019-05-10T10:31:33.771Z,7.50
2019-05-10T10:34:04.454Z,5.87
2019-05-10T10:36:40.373Z,13.63
2019-05-10T10:39:07.495Z,6.87
2019-05-10T10:41:37.096Z,6.63
2019-05-10T10:44:08.397Z,13.43
2019-05-10T10:46:38.093Z,4.83
2019-05-10T10:49:07.691Z,7.20
2019-05-10T10:51:38.078Z,6.03
2019-05-10T10:54:07.705Z,4.97
2019-05-10T10:56:37.527Z,8.73
2019-05-10T10:59:07.612Z,8.93
2019-05-10T11:01:49.165Z,7.77
2019-05-10T11:04:09.763Z,9.00
2019-05-10T11:06:39.707Z,10.93
2019-05-10T11:09:09.433Z,8.97
2019-05-10T11:11:44.220Z,5.90
2019-05-10T11:14:11.076Z,8.37
2019-05-10T11:16:41.369Z,9.83
2019-05-10T11:19:15.537Z,6.73
2019-05-10T11:21:42.737Z,8.47
2019-05-10T11:24:17.945Z,16.17
2019-05-10T11:26:44.899Z,8.50
2019-05-10T11:29:25.368Z,9.07
2019-05-10T11:31:48.741Z,6.90
2019-05-10T11:34:17.704Z,10.77
2019-05-10T11:36:48.314Z,9.90
2019-05-10T11:39:26.136Z,9.17
2019-05-10T11:41:52.992Z,9.80
2019-05-10T11:44:22.080Z,9.47
2019-05-10T11:46:52.302Z,7.43
2019-05-10T11:49:21.825Z,7.70
2019-05-10T11:51:54.823Z,8.37
2019-05-10T11:54:22.637Z,10.60
2019-05-10T11:56:52.518Z,13.73
2019-05-10T11:59:27.293Z,8.83
2019-05-10T12:01:59.617Z,7.50
2019-05-10T12:04:36.395Z,10.20
2019-05-10T12:06:57.512Z,8.70
2019-05-10T12:09:27.140Z,7.37
2019-05-10T12:11:57.160Z,13.77
2019-05-10T12:14:26.975Z,10.97
2019-05-10T12:16:56.500Z,7.43
2019-05-10T12:19:26.053Z,7.17
2019-05-10T12:21:56.275Z,10.43
2019-05-10T12:24:43.066Z,9.37
2019-05-10T12:29:28.608Z,6.67
2019-05-10T12:31:58.311Z,10.17
2019-05-10T12:34:27.904Z,8.07
2019-05-10T12:37:03.810Z,8.33
2019-05-10T12:39:31.004Z,9.43
2019-05-10T12:42:00.787Z,9.43
2019-05-10T12:44:33.159Z,9.40
2019-05-10T12:47:01.571Z,9.37
2019-05-10T12:49:31.614Z,7.63
2019-05-10T12:52:03.232Z,8.10
2019-05-10T12:54:32.444Z,7.87
2019-05-10T12:57:02.257Z,9.37
2019-05-10T12:59:34.851Z,7.90
2019-05-10T13:02:04.518Z,7.70
2019-05-10T13:04:40.718Z,8.80
2019-05-10T13:07:05.796Z,7.80
2019-05-10T13:09:40.350Z,9.40
2019-05-10T13:12:06.894Z,8.60
2019-05-10T13:14:39.952Z,6.50
2019-05-10T13:17:09.896Z,7.73
2019-05-10T13:19:39.584Z,6.70
2019-05-10T13:22:09.148Z,7.50
2019-05-10T13:24:38.708Z,11.23
2019-05-10T13:27:08.307Z,6.33
2019-05-10T13:29:40.553Z,6.73
2019-05-10T13:32:09.104Z,10.33
2019-05-10T13:34:38.635Z,7.87
2019-05-10T13:37:13.613Z,8.60
2019-05-10T13:39:39.847Z,7.80
2019-05-10T13:42:09.846Z,8.97
2019-05-10T13:44:42.924Z,9.60
2019-05-10T13:47:10.751Z,9.23
2019-05-10T13:49:40.249Z,6.27
2019-05-10T13:52:09.855Z,9.50
2019-05-10T13:54:39.385Z,10.83
2019-05-10T13:57:08.910Z,10.27
2019-05-10T13:59:38.508Z,11.30
2019-05-10T14:02:08.078Z,13.70
2019-05-10T14:04:38.750Z,14.00
2019-05-10T14:07:08.950Z,12.47
2019-05-10T14:09:38.521Z,9.57
2019-05-10T14:12:08.227Z,11.30
2019-05-10T14:14:37.844Z,12.03
2019-05-10T14:17:10.310Z,11.33
2019-05-10T14:19:39.845Z,8.67
2019-05-10T14:22:09.736Z,10.27
2019-05-10T14:24:40.262Z,11.50
2019-05-10T14:27:10.888Z,11.80
2019-05-10T14:29:40.429Z,11.47
2019-05-10T14:32:10.035Z,10.90
2019-05-10T14:34:43.938Z,13.90
2019-05-10T14:37:14.142Z,11.20
2019-05-10T14:39:42.431Z,11.00
2019-05-10T14:42:13.834Z,9.00
2019-05-10T14:44:44.827Z,13.67
2019-05-10T14:47:14.446Z,10.03
2019-05-10T14:49:46.868Z,8.43
2019-05-10T14:52:15.224Z,8.80
2019-05-10T14:54:49.667Z,8.70
2019-05-10T14:57:16.006Z,8.50
2019-05-10T14:59:45.689Z,12.10
2019-05-10T15:02:17.033Z,23.80
2019-05-10T15:04:47.195Z,11.47
2019-05-10T15:07:17.008Z,11.43
2019-05-10T15:09:46.502Z,17.23
2019-05-10T15:12:21.931Z,13.97
2019-05-10T15:14:47.480Z,21.27
2019-05-10T15:17:19.863Z,12.90
2019-05-10T15:19:55.927Z,16.90
2019-05-10T15:22:23.224Z,12.27
2019-05-10T15:24:50.713Z,11.33
2019-05-10T15:27:21.804Z,13.97
2019-05-10T15:29:51.633Z,11.83
2019-05-10T15:32:21.165Z,13.60
2019-05-10T15:35:05.814Z,12.70
2019-05-10T15:37:21.973Z,12.03
2019-05-10T15:39:51.551Z,10.93
2019-05-10T15:42:21.994Z,13.90
2019-05-10T15:44:51.757Z,14.87
2019-05-10T15:47:22.369Z,13.00
2019-05-10T15:49:54.604Z,15.00
2019-05-10T15:52:24.443Z,14.70
2019-05-10T15:54:54.326Z,12.10
2019-05-10T15:57:23.896Z,12.73
2019-05-10T15:59:56.919Z,15.60
2019-05-10T16:02:24.690Z,13.77
2019-05-10T16:04:54.220Z,11.40
2019-05-10T16:07:23.869Z,12.90
2019-05-10T16:09:54.477Z,12.60
2019-05-10T16:12:25.207Z,14.40
2019-05-10T16:14:55.248Z,14.00
2019-05-10T16:17:24.863Z,11.03
2019-05-10T16:19:59.440Z,10.53
2019-05-10T16:22:30.228Z,8.80
2019-05-10T16:25:02.883Z,15.50
2019-05-10T16:27:34.082Z,17.83
2019-05-10T16:30:11.980Z,10.50
2019-05-10T16:32:40.183Z,13.10
2019-05-10T16:35:12.753Z,6.90
2019-05-10T16:37:41.484Z,16.53
2019-05-10T16:40:11.363Z,9.53
2019-05-10T16:42:41.077Z,9.43
2019-05-10T16:45:11.060Z,9.03
2019-05-10T16:47:40.692Z,7.93
2019-05-10T16:50:10.613Z,6.57
2019-05-10T16:52:40.113Z,11.00
2019-05-10T16:55:10.025Z,7.40
2019-05-10T16:57:40.726Z,11.60
2019-05-10T17:00:11.007Z,13.47
2019-05-10T17:02:42.227Z,11.57
2019-05-10T17:05:15.214Z,10.53
2019-05-10T17:07:44.559Z,8.80
2019-05-10T17:10:14.454Z,7.80
2019-05-10T17:12:44.068Z,8.60
2019-05-10T17:15:13.739Z,10.20
2019-05-10T17:17:44.983Z,8.83
2019-05-10T17:20:15.949Z,8.23
2019-05-10T17:22:45.666Z,10.37
2019-05-10T17:25:15.428Z,9.47
2019-05-10T17:27:45.047Z,9.37
2019-05-10T17:30:16.574Z,10.10
2019-05-10T17:32:46.135Z,6.10
2019-05-10T17:35:15.809Z,7.30
2019-05-10T17:37:45.380Z,8.63
2019-05-10T17:40:15.277Z,7.70
2019-05-10T17:42:45.398Z,16.63
2019-05-10T17:45:15.247Z,8.00
2019-05-10T17:47:44.960Z,11.03
2019-05-10T17:50:14.624Z,8.50
2019-05-10T17:52:44.214Z,6.20
2019-05-10T17:55:16.959Z,8.53
2019-05-10T17:57:48.481Z,8.20
2019-05-10T18:00:17.318Z,8.13
2019-05-10T18:02:47.079Z,7.50
2019-05-10T18:05:16.918Z,7.37
2019-05-10T18:07:47.433Z,8.83
2019-05-10T18:10:17.086Z,8.73
2019-05-10T18:12:46.703Z,9.20
2019-05-10T18:15:16.361Z,7.37
2019-05-10T18:17:45.972Z,11.80
2019-05-10T18:20:15.778Z,10.30
2019-05-10T18:22:45.468Z,9.47
2019-05-10T18:25:20.380Z,10.07
2019-05-10T18:27:46.876Z,9.50
2019-05-10T18:30:16.850Z,9.00
2019-05-10T18:32:46.514Z,9.93
2019-05-10T18:35:17.054Z,12.47
2019-05-10T18:37:46.781Z,13.07
2019-05-10T18:40:16.380Z,12.03
2019-05-10T18:42:45.945Z,11.20
2019-05-10T18:45:15.930Z,11.27
2019-05-10T18:47:45.501Z,13.37
2019-05-10T18:50:15.206Z,10.53
2019-05-10T18:52:44.817Z,15.17
2019-05-10T18:55:14.398Z,10.53
2019-05-10T18:57:45.293Z,14.17
2019-05-10T19:00:23.007Z,12.43
2019-05-10T19:02:49.682Z,14.93
2019-05-10T19:05:25.195Z,11.90
2019-05-10T19:08:03.058Z,11.83
2019-05-10T19:10:23.180Z,11.13
2019-05-10T19:12:59.960Z,14.20
2019-05-10T19:15:23.938Z,10.80
2019-05-10T19:17:53.693Z,12.80
2019-05-10T19:20:23.180Z,11.70
2019-05-10T19:22:52.753Z,13.70
2019-05-10T19:25:22.269Z,16.53
2019-05-10T19:27:51.775Z,14.07
2019-05-10T19:30:22.446Z,19.27
2019-05-10T19:32:56.287Z,15.83
2019-05-10T19:35:23.536Z,15.73
2019-05-10T19:37:54.108Z,15.30
2019-05-10T19:40:23.707Z,16.47
2019-05-10T19:42:53.382Z,12.47
2019-05-10T19:45:22.892Z,15.40
2019-05-10T19:47:55.559Z,13.00
2019-05-10T19:50:30.814Z,14.90
2019-05-10T19:52:58.489Z,15.77
2019-05-10T19:55:26.159Z,17.00
2019-05-10T19:57:56.650Z,17.00
2019-05-10T20:00:26.301Z,14.37
2019-05-10T20:02:55.807Z,15.40
2019-05-10T20:05:25.464Z,25.47
2019-05-10T20:07:55.006Z,17.30
2019-05-10T20:10:24.639Z,16.23
2019-05-10T20:12:54.185Z,17.67
2019-05-10T20:15:23.702Z,17.80
2019-05-10T20:17:53.341Z,21.27
2019-05-10T20:20:23.023Z,21.20
2019-05-10T20:22:52.554Z,19.43
2019-05-10T20:25:22.156Z,23.50
2019-05-10T20:27:51.775Z,17.77
2019-05-10T20:30:21.563Z,21.70
2019-05-10T20:32:51.171Z,17.87
2019-05-10T20:35:20.765Z,17.73
2019-05-10T20:38:01.454Z,19.67
2019-05-10T20:40:21.709Z,21.37
2019-05-10T20:42:51.300Z,26.47
2019-05-10T20:45:20.842Z,33.67
2019-05-10T20:47:50.376Z,33.53
2019-05-10T20:50:19.907Z,31.50
2019-05-10T20:52:49.452Z,28.43
2019-05-10T20:55:19.084Z,36.67
2019-05-10T20:57:48.664Z,35.43
2019-05-10T21:00:18.389Z,35.60
2019-05-10T21:02:47.903Z,30.97
2019-05-10T21:05:17.772Z,22.90
2019-05-10T21:07:47.324Z,23.13
2019-05-10T21:10:17.602Z,24.23
2019-05-10T21:12:47.214Z,25.53
2019-05-10T21:15:17.803Z,26.13
2019-05-10T21:17:47.337Z,26.43
2019-05-10T21:20:16.833Z,31.80
2019-05-10T21:22:46.336Z,30.80
2019-05-10T21:25:15.877Z,40.33
2019-05-10T21:27:45.364Z,34.57
2019-05-10T21:30:15.292Z,36.30
2019-05-10T21:32:44.836Z,29.83
2019-05-10T21:35:14.433Z,35.73
2019-05-10T21:37:43.972Z,40.10
2019-05-10T21:40:13.677Z,44.80
2019-05-10T21:42:43.202Z,32.97
2019-05-10T21:45:12.878Z,36.90
2019-05-10T21:47:51.127Z,33.23
2019-05-10T21:50:14.244Z,37.57
2019-05-10T21:52:43.905Z,33.47
2019-05-10T21:55:13.476Z,34.73
2019-05-10T21:57:43.057Z,32.10
2019-05-10T22:00:12.986Z,37.17
2019-05-10T22:02:43.672Z,34.40
2019-05-10T22:05:13.702Z,32.70
2019-05-10T22:07:43.661Z,45.93
2019-05-10T22:10:13.353Z,44.97
2019-05-10T22:12:42.850Z,35.63
2019-05-10T22:15:12.442Z,34.63
2019-05-10T22:17:42.958Z,37.30
2019-05-10T22:20:12.738Z,29.93
2019-05-10T22:22:42.293Z,35.73
2019-05-10T22:25:12.036Z,31.50
2019-05-10T22:27:41.634Z,32.93
2019-05-10T22:30:12.475Z,29.10
2019-05-10T22:32:42.528Z,35.07
2019-05-10T22:35:12.241Z,30.93
2019-05-10T22:37:41.803Z,33.70
2019-05-10T22:40:11.877Z,31.83
2019-05-10T22:42:41.400Z,33.40
2019-05-10T22:45:11.008Z,33.27
2019-05-10T22:47:40.696Z,37.10
2019-05-10T22:50:11.273Z,29.73
2019-05-10T22:52:40.800Z,33.10
2019-05-10T22:55:10.495Z,29.77
2019-05-10T22:57:40.034Z,31.60
2019-05-10T23:00:10.685Z,37.33
2019-05-10T23:02:40.171Z,35.30
2019-05-10T23:05:10.818Z,35.27
2019-05-10T23:07:40.400Z,32.97
2019-05-10T23:10:10.268Z,35.07
2019-05-10T23:12:39.781Z,35.77
2019-05-10T23:15:09.635Z,34.57
2019-05-10T23:17:39.205Z,34.87
2019-05-10T23:20:08.986Z,37.00
2019-05-10T23:22:38.502Z,34.10
2019-05-10T23:25:08.285Z,35.90
2019-05-10T23:27:37.887Z,40.43
2019-05-10T23:30:07.691Z,35.83
2019-05-10T23:32:37.418Z,38.90
2019-05-10T23:35:07.186Z,43.20
2019-05-10T23:37:36.747Z,38.70
2019-05-10T23:40:09.768Z,43.10
2019-05-10T23:42:39.340Z,38.20
2019-05-10T23:45:09.873Z,40.73
2019-05-10T23:47:39.413Z,55.00
2019-05-10T23:50:09.134Z,40.27
2019-05-10T23:52:38.778Z,41.00
2019-05-10T23:55:08.540Z,44.50
2019-05-10T23:57:38.032Z,39.97
